createdAt,value
2019-03-26T00:02:06.244Z,82.68
2019-03-26T00:04:39.031Z,82.54
2019-03-26T00:07:10.244Z,82.72
2019-03-26T00:09:41.383Z,82.79
2019-03-26T00:12:12.594Z,82.66
2019-03-26T00:14:46.731Z,83.08
2019-03-26T00:17:17.983Z,82.97
2019-03-26T00:19:49.288Z,82.70
2019-03-26T00:22:22.180Z,82.63
2019-03-26T00:24:52.963Z,82.60
2019-03-26T00:27:24.126Z,82.47
2019-03-26T00:29:57.199Z,82.51
2019-03-26T00:32:28.270Z,82.24
2019-03-26T00:34:59.280Z,82.89
2019-03-26T00:37:32.212Z,82.80
2019-03-26T00:40:05.936Z,82.73
2019-03-26T00:42:37.837Z,82.85
2019-03-26T00:45:09.076Z,82.60
2019-03-26T00:47:43.802Z,82.55
2019-03-26T00:50:35.547Z,82.48
2019-03-26T00:53:06.603Z,82.59
2019-03-26T00:55:38.169Z,82.76
2019-03-26T00:58:09.143Z,82.81
2019-03-26T01:00:46.017Z,82.72
2019-03-26T01:03:20.107Z,82.32
2019-03-26T01:05:52.565Z,82.48
2019-03-26T01:08:23.832Z,82.83
2019-03-26T01:10:54.715Z,82.88
2019-03-26T01:13:25.782Z,82.71
2019-03-26T01:15:57.044Z,82.82
2019-03-26T01:18:28.085Z,82.78
2019-03-26T01:20:59.209Z,82.76
2019-03-26T01:23:30.018Z,82.38
2019-03-26T01:26:01.591Z,82.44
2019-03-26T01:28:32.651Z,82.27
2019-03-26T01:31:04.878Z,82.22
2019-03-26T01:33:36.996Z,81.83
2019-03-26T01:36:07.675Z,81.51
2019-03-26T01:38:39.100Z,81.45
2019-03-26T01:41:10.209Z,81.19
2019-03-26T01:43:41.267Z,81.23
2019-03-26T01:46:12.215Z,80.91
2019-03-26T01:48:43.279Z,80.99
2019-03-26T01:51:14.399Z,81.15
2019-03-26T01:53:45.555Z,81.38
2019-03-26T01:56:18.601Z,81.46
2019-03-26T01:58:52.048Z,81.34
2019-03-26T02:01:24.351Z,81.55
2019-03-26T02:03:55.284Z,81.54
2019-03-26T02:06:26.227Z,81.49
2019-03-26T02:08:57.196Z,81.37
2019-03-26T02:11:28.503Z,81.45
2019-03-26T02:14:00.046Z,81.63
2019-03-26T02:16:34.624Z,81.81
2019-03-26T02:19:05.839Z,81.79
2019-03-26T02:21:37.011Z,82.04
2019-03-26T02:24:08.420Z,82.36
2019-03-26T02:26:44.486Z,82.43
2019-03-26T02:29:15.539Z,82.77
2019-03-26T02:31:46.590Z,83.12
2019-03-26T02:34:17.849Z,83.24
2019-03-26T02:36:48.942Z,83.22
2019-03-26T02:39:20.130Z,83.57
2019-03-26T02:41:51.351Z,83.80
2019-03-26T02:44:22.595Z,84.06
2019-03-26T02:46:56.606Z,84.11
2019-03-26T02:49:27.905Z,84.48
2019-03-26T02:52:00.939Z,84.39
2019-03-26T02:54:32.061Z,84.33
2019-03-26T02:57:03.159Z,84.49
2019-03-26T02:59:40.240Z,84.60
2019-03-26T03:02:11.463Z,84.49
2019-03-26T03:04:42.699Z,84.39
2019-03-26T03:07:15.828Z,84.26
2019-03-26T03:09:46.917Z,84.31
2019-03-26T03:12:18.074Z,84.10
2019-03-26T03:14:49.198Z,83.87
2019-03-26T03:17:20.328Z,83.92
2019-03-26T03:19:51.722Z,83.90
2019-03-26T03:22:23.851Z,83.73
2019-03-26T03:24:55.165Z,83.88
2019-03-26T03:27:26.295Z,83.67
2019-03-26T03:29:57.501Z,83.52
2019-03-26T03:32:28.504Z,83.63
2019-03-26T03:34:59.561Z,83.95
2019-03-26T03:37:30.906Z,84.24
2019-03-26T03:40:03.122Z,84.45
2019-03-26T03:42:36.182Z,84.63
2019-03-26T03:45:10.287Z,84.95
2019-03-26T03:47:43.733Z,85.11
2019-03-26T03:50:14.945Z,84.91
2019-03-26T03:52:46.150Z,84.91
2019-03-26T03:55:17.216Z,84.89
2019-03-26T03:57:52.802Z,84.95
2019-03-26T04:00:41.767Z,84.99
2019-03-26T04:03:15.660Z,85.21
2019-03-26T04:05:46.839Z,85.14
2019-03-26T04:08:18.039Z,85.35
2019-03-26T04:10:49.213Z,85.42
2019-03-26T04:13:20.601Z,86.04
2019-03-26T04:15:53.802Z,86.04
2019-03-26T04:18:24.989Z,86.58
2019-03-26T04:20:56.265Z,86.86
2019-03-26T04:23:28.771Z,86.74
2019-03-26T04:25:59.643Z,86.43
2019-03-26T04:28:30.854Z,86.38
2019-03-26T04:31:01.786Z,86.21
2019-03-26T04:33:34.086Z,86.46
2019-03-26T04:36:05.340Z,86.52
2019-03-26T04:38:36.539Z,86.27
2019-03-26T04:41:07.993Z,86.35
2019-03-26T04:43:39.698Z,86.54
2019-03-26T04:46:11.112Z,86.42
2019-03-26T04:48:42.022Z,86.46
2019-03-26T04:51:13.025Z,86.40
2019-03-26T04:53:46.116Z,86.25
2019-03-26T04:56:18.997Z,86.16
2019-03-26T04:58:50.134Z,86.13
2019-03-26T05:01:21.819Z,86.00
2019-03-26T05:03:52.998Z,86.01
2019-03-26T05:06:37.212Z,85.82
2019-03-26T05:08:57.166Z,85.72
2019-03-26T05:11:30.055Z,85.67
2019-03-26T05:14:01.325Z,85.70
2019-03-26T05:16:34.046Z,85.79
2019-03-26T05:19:05.466Z,85.57
2019-03-26T05:21:36.750Z,85.56
2019-03-26T05:24:09.682Z,85.53
2019-03-26T05:26:41.173Z,85.46
2019-03-26T05:29:14.205Z,85.99
2019-03-26T05:31:46.800Z,85.75
2019-03-26T05:34:17.719Z,85.91
2019-03-26T05:36:51.440Z,85.70
2019-03-26T05:39:21.939Z,85.31
2019-03-26T05:41:54.399Z,85.15
2019-03-26T05:44:25.938Z,85.03
2019-03-26T05:46:57.255Z,84.86
2019-03-26T05:49:31.574Z,85.08
2019-03-26T05:52:02.639Z,85.06
2019-03-26T05:54:35.709Z,85.49
2019-03-26T05:57:08.630Z,85.62
2019-03-26T05:59:39.815Z,85.73
2019-03-26T06:02:15.166Z,85.88
2019-03-26T06:04:44.294Z,86.38
2019-03-26T06:07:17.254Z,86.06
2019-03-26T06:09:48.306Z,86.01
2019-03-26T06:12:19.556Z,85.60
2019-03-26T06:14:50.815Z,85.49
2019-03-26T06:17:22.278Z,84.96
2019-03-26T06:19:55.251Z,84.68
2019-03-26T06:22:28.359Z,84.12
2019-03-26T06:25:01.412Z,83.81
2019-03-26T06:27:32.726Z,82.74
2019-03-26T06:30:03.884Z,82.58
2019-03-26T06:32:36.219Z,82.30
2019-03-26T06:35:08.155Z,82.11
2019-03-26T06:37:41.147Z,82.04
2019-03-26T06:40:13.361Z,81.88
2019-03-26T06:42:44.484Z,81.25
2019-03-26T06:45:16.013Z,80.94
2019-03-26T06:47:47.053Z,80.88
2019-03-26T06:50:19.792Z,80.24
2019-03-26T06:52:54.311Z,79.82
2019-03-26T06:55:27.288Z,79.29
2019-03-26T06:58:00.225Z,78.87
2019-03-26T07:00:32.413Z,78.07
2019-03-26T07:03:04.765Z,77.85
2019-03-26T07:05:37.876Z,78.37
2019-03-26T07:08:10.807Z,78.13
2019-03-26T07:10:42.058Z,77.51
2019-03-26T07:13:13.322Z,77.44
2019-03-26T07:15:44.672Z,78.02
2019-03-26T07:18:15.931Z,77.87
2019-03-26T07:20:48.189Z,77.71
2019-03-26T07:23:21.023Z,77.71
2019-03-26T07:25:52.516Z,77.52
2019-03-26T07:28:24.488Z,76.86
2019-03-26T07:30:55.476Z,76.83
2019-03-26T07:33:27.912Z,76.99
2019-03-26T07:35:59.041Z,76.67
2019-03-26T07:38:30.152Z,76.41
2019-03-26T07:41:01.274Z,76.86
2019-03-26T07:43:33.659Z,78.45
2019-03-26T07:46:04.794Z,79.15
2019-03-26T07:48:35.885Z,78.49
2019-03-26T07:51:06.937Z,78.51
2019-03-26T07:53:39.243Z,78.02
2019-03-26T07:56:12.028Z,76.63
2019-03-26T07:58:47.076Z,76.46
2019-03-26T08:01:18.242Z,76.15
2019-03-26T08:03:51.170Z,76.06
2019-03-26T08:06:22.481Z,75.72
2019-03-26T08:08:54.027Z,75.62
2019-03-26T08:11:25.183Z,75.51
2019-03-26T08:13:56.321Z,75.52
2019-03-26T08:16:27.946Z,76.10
2019-03-26T08:18:59.474Z,75.51
2019-03-26T08:21:32.480Z,75.17
2019-03-26T08:24:03.773Z,75.00
2019-03-26T08:26:35.119Z,75.13
2019-03-26T08:29:06.328Z,75.13
2019-03-26T08:31:38.504Z,74.89
2019-03-26T08:34:09.615Z,74.72
2019-03-26T08:36:41.708Z,74.53
2019-03-26T08:39:13.042Z,75.07
2019-03-26T08:41:44.271Z,74.79
2019-03-26T08:44:15.403Z,74.96
2019-03-26T08:46:47.096Z,74.74
2019-03-26T08:49:18.530Z,73.81
2019-03-26T08:51:49.755Z,73.89
2019-03-26T08:54:20.873Z,73.62
2019-03-26T08:56:52.293Z,72.94
2019-03-26T08:59:24.006Z,71.77
2019-03-26T09:01:55.189Z,71.62
2019-03-26T09:04:28.190Z,70.45
2019-03-26T09:06:59.444Z,70.01
2019-03-26T09:09:32.153Z,70.42
2019-03-26T09:12:03.756Z,69.62
2019-03-26T09:14:35.071Z,69.24
2019-03-26T09:17:10.881Z,69.09
2019-03-26T09:19:42.167Z,68.94
2019-03-26T09:22:15.144Z,68.44
2019-03-26T09:24:46.445Z,67.77
2019-03-26T09:27:17.763Z,66.68
2019-03-26T09:29:49.833Z,66.27
2019-03-26T09:32:21.272Z,64.06
2019-03-26T09:34:52.563Z,63.73
2019-03-26T09:37:23.630Z,63.51
2019-03-26T09:39:55.339Z,63.00
2019-03-26T09:42:26.706Z,62.16
2019-03-26T09:44:58.666Z,62.34
2019-03-26T09:47:29.965Z,61.97
2019-03-26T09:50:01.248Z,61.88
2019-03-26T09:52:34.407Z,62.24
2019-03-26T09:55:07.723Z,61.58
2019-03-26T09:57:38.757Z,61.65
2019-03-26T10:00:10.149Z,61.08
2019-03-26T10:02:43.325Z,62.04
2019-03-26T10:05:14.915Z,61.32
2019-03-26T10:07:46.318Z,62.48
2019-03-26T10:10:19.686Z,61.39
2019-03-26T10:12:50.776Z,61.98
2019-03-26T10:15:24.656Z,61.63
2019-03-26T10:17:57.682Z,62.73
2019-03-26T10:20:29.122Z,61.07
2019-03-26T10:23:00.279Z,59.43
2019-03-26T10:25:31.638Z,59.13
2019-03-26T10:28:03.445Z,57.97
2019-03-26T10:30:43.250Z,56.41
2019-03-26T10:33:14.437Z,55.31
2019-03-26T10:35:47.364Z,53.08
2019-03-26T10:38:18.900Z,51.39
2019-03-26T10:40:52.026Z,48.41
2019-03-26T10:43:23.402Z,45.64
2019-03-26T10:45:59.601Z,41.82
2019-03-26T10:48:31.953Z,39.46
2019-03-26T10:51:03.420Z,35.97
2019-03-26T10:53:34.482Z,33.95
2019-03-26T10:56:05.954Z,32.98
2019-03-26T10:58:37.294Z,34.39
2019-03-26T11:01:09.002Z,35.53
2019-03-26T11:03:40.417Z,36.57
2019-03-26T11:06:11.847Z,40.36
2019-03-26T11:08:45.218Z,40.43
2019-03-26T11:11:16.863Z,42.34
2019-03-26T11:13:50.064Z,41.58
2019-03-26T11:16:21.239Z,41.10
2019-03-26T11:18:52.535Z,41.52
2019-03-26T11:21:24.738Z,42.10
2019-03-26T11:23:56.432Z,43.73
2019-03-26T11:26:30.362Z,44.38
2019-03-26T11:29:02.694Z,43.90
2019-03-26T11:31:35.886Z,44.34
2019-03-26T11:34:10.873Z,44.33
2019-03-26T11:36:43.880Z,44.01
2019-03-26T11:39:15.142Z,44.23
2019-03-26T11:41:46.396Z,43.69
2019-03-26T11:44:17.533Z,42.29
2019-03-26T11:46:50.707Z,37.72
2019-03-26T11:49:21.944Z,32.67
2019-03-26T11:51:54.841Z,29.80
2019-03-26T11:54:26.211Z,29.32
2019-03-26T11:56:57.407Z,31.20
2019-03-26T11:59:30.495Z,32.70
2019-03-26T12:02:01.806Z,33.58
2019-03-26T12:04:33.150Z,34.63
2019-03-26T12:07:04.332Z,35.79
2019-03-26T12:09:45.666Z,36.52
2019-03-26T12:12:09.215Z,39.44
2019-03-26T12:14:42.696Z,41.96
2019-03-26T12:17:15.112Z,43.41
2019-03-26T12:19:46.401Z,42.71
2019-03-26T12:22:17.750Z,43.64
2019-03-26T12:24:48.995Z,44.96
2019-03-26T12:27:20.118Z,44.65
2019-03-26T12:29:51.433Z,45.04
2019-03-26T12:32:22.600Z,46.14
2019-03-26T12:34:55.615Z,45.83
2019-03-26T12:37:26.997Z,45.71
2019-03-26T12:39:59.637Z,44.67
2019-03-26T12:42:31.262Z,44.54
2019-03-26T12:45:06.756Z,43.49
2019-03-26T12:47:38.231Z,39.39
2019-03-26T12:50:09.936Z,38.34
2019-03-26T12:52:41.066Z,33.50
2019-03-26T12:55:12.252Z,30.44
2019-03-26T12:57:43.261Z,27.13
2019-03-26T13:00:14.461Z,26.77
2019-03-26T13:02:51.262Z,25.90
2019-03-26T13:05:24.322Z,26.54
2019-03-26T13:07:57.469Z,25.45
2019-03-26T13:10:29.075Z,25.11
2019-03-26T13:13:00.680Z,22.75
2019-03-26T13:15:33.033Z,21.90
2019-03-26T13:18:04.217Z,23.17
2019-03-26T13:20:37.157Z,25.04
2019-03-26T13:23:08.404Z,27.33
2019-03-26T13:25:39.461Z,29.11
2019-03-26T13:28:10.734Z,31.04
2019-03-26T13:30:43.822Z,34.73
2019-03-26T13:33:15.323Z,35.03
2019-03-26T13:35:47.502Z,33.57
2019-03-26T13:38:18.652Z,35.62
2019-03-26T13:40:49.629Z,34.52
2019-03-26T13:43:22.496Z,33.32
2019-03-26T13:45:53.706Z,34.58
2019-03-26T13:48:24.965Z,36.79
2019-03-26T13:50:56.022Z,35.68
2019-03-26T13:53:27.317Z,33.25
2019-03-26T13:55:58.420Z,31.33
2019-03-26T13:58:29.752Z,31.67
2019-03-26T14:01:02.850Z,30.98
2019-03-26T14:03:35.406Z,29.92
2019-03-26T14:06:07.100Z,29.26
2019-03-26T14:08:40.021Z,30.65
2019-03-26T14:11:11.477Z,30.68
2019-03-26T14:13:44.623Z,30.08
2019-03-26T14:16:17.542Z,32.31
2019-03-26T14:18:48.953Z,32.10
2019-03-26T14:21:20.211Z,32.26
2019-03-26T14:23:53.151Z,33.39
2019-03-26T14:26:26.654Z,33.26
2019-03-26T14:28:57.719Z,33.99
2019-03-26T14:31:29.252Z,33.79
2019-03-26T14:34:01.053Z,34.55
2019-03-26T14:36:32.304Z,35.63
2019-03-26T14:39:05.837Z,35.54
2019-03-26T14:41:38.651Z,35.62
2019-03-26T14:44:14.423Z,35.70
2019-03-26T14:46:51.385Z,35.28
2019-03-26T14:49:27.649Z,35.17
2019-03-26T14:51:58.944Z,35.88
2019-03-26T14:54:32.033Z,36.00
2019-03-26T14:57:03.147Z,36.53
2019-03-26T14:59:34.428Z,37.21
2019-03-26T15:02:07.589Z,38.13
2019-03-26T15:04:39.293Z,38.56
2019-03-26T15:07:12.474Z,38.39
2019-03-26T15:09:44.612Z,38.08
2019-03-26T15:12:18.377Z,38.15
2019-03-26T15:14:51.533Z,38.21
2019-03-26T15:17:23.784Z,37.72
2019-03-26T15:19:55.409Z,37.67
2019-03-26T15:22:27.414Z,37.76
2019-03-26T15:24:59.570Z,36.33
2019-03-26T15:27:30.927Z,36.59
2019-03-26T15:30:06.882Z,38.91
2019-03-26T15:32:38.138Z,39.83
2019-03-26T15:35:09.953Z,39.95
2019-03-26T15:37:43.031Z,40.11
2019-03-26T15:40:17.395Z,40.85
2019-03-26T15:42:49.062Z,41.12
2019-03-26T15:45:20.780Z,41.09
2019-03-26T15:47:52.398Z,41.63
2019-03-26T15:50:42.177Z,40.80
2019-03-26T15:53:14.659Z,41.02
2019-03-26T15:55:46.464Z,42.16
2019-03-26T15:58:18.113Z,41.88
2019-03-26T16:00:49.783Z,42.24
2019-03-26T16:03:22.618Z,42.45
2019-03-26T16:05:57.233Z,42.38
2019-03-26T16:08:29.127Z,41.81
2019-03-26T16:11:00.606Z,42.55
2019-03-26T16:13:35.572Z,42.48
2019-03-26T16:16:05.858Z,43.07
2019-03-26T16:18:48.565Z,43.24
2019-03-26T16:21:19.914Z,43.26
2019-03-26T16:23:51.405Z,43.49
2019-03-26T16:26:23.242Z,42.91
2019-03-26T16:28:56.318Z,43.35
2019-03-26T16:31:29.677Z,43.85
2019-03-26T16:34:01.601Z,44.75
2019-03-26T16:36:32.749Z,45.33
2019-03-26T16:39:05.064Z,45.51
2019-03-26T16:41:48.457Z,45.82
2019-03-26T16:44:11.068Z,46.45
2019-03-26T16:46:44.183Z,46.02
2019-03-26T16:49:16.717Z,46.25
2019-03-26T16:51:47.949Z,46.44
2019-03-26T16:54:19.061Z,47.36
2019-03-26T16:56:56.057Z,47.39
2019-03-26T16:59:29.127Z,47.97
2019-03-26T17:02:00.377Z,48.05
2019-03-26T17:04:31.643Z,49.10
2019-03-26T17:07:03.489Z,49.73
2019-03-26T17:09:36.579Z,50.62
2019-03-26T17:12:09.439Z,51.76
2019-03-26T17:14:40.787Z,52.44
2019-03-26T17:17:12.228Z,52.26
2019-03-26T17:19:43.532Z,52.34
2019-03-26T17:22:16.049Z,53.17
2019-03-26T17:24:47.483Z,53.63
2019-03-26T17:27:20.319Z,54.04
2019-03-26T17:29:51.751Z,54.62
2019-03-26T17:32:23.074Z,54.62
2019-03-26T17:34:54.853Z,55.32
2019-03-26T17:37:26.568Z,55.29
2019-03-26T17:39:57.750Z,55.43
2019-03-26T17:42:28.977Z,55.79
2019-03-26T17:45:00.757Z,56.21
2019-03-26T17:47:33.275Z,57.08
2019-03-26T17:50:05.113Z,56.68
2019-03-26T17:52:36.835Z,56.60
2019-03-26T17:55:09.069Z,56.80
2019-03-26T17:57:40.580Z,57.10
2019-03-26T18:00:16.521Z,56.96
2019-03-26T18:02:49.549Z,56.96
2019-03-26T18:05:28.473Z,57.19
2019-03-26T18:07:59.758Z,57.18
2019-03-26T18:10:32.976Z,57.32
2019-03-26T18:13:04.509Z,57.66
2019-03-26T18:15:36.338Z,57.62
2019-03-26T18:18:08.341Z,57.65
2019-03-26T18:20:41.798Z,58.00
2019-03-26T18:23:13.016Z,57.01
2019-03-26T18:25:44.706Z,56.96
2019-03-26T18:28:16.013Z,56.66
2019-03-26T18:30:48.905Z,56.57
2019-03-26T18:33:21.330Z,55.96
2019-03-26T18:35:54.569Z,55.54
2019-03-26T18:38:25.900Z,55.58
2019-03-26T18:40:57.059Z,55.70
2019-03-26T18:43:28.391Z,56.05
2019-03-26T18:46:00.078Z,55.87
2019-03-26T18:48:31.584Z,56.20
2019-03-26T18:51:03.160Z,56.79
2019-03-26T18:53:34.363Z,57.86
2019-03-26T18:56:08.433Z,57.08
2019-03-26T18:58:40.024Z,58.01
2019-03-26T19:01:12.415Z,58.62
2019-03-26T19:03:44.253Z,58.19
2019-03-26T19:06:17.390Z,58.71
2019-03-26T19:08:50.399Z,58.87
2019-03-26T19:11:23.444Z,59.09
2019-03-26T19:13:56.391Z,59.66
2019-03-26T19:16:27.845Z,60.28
2019-03-26T19:19:00.873Z,61.04
2019-03-26T19:21:34.073Z,60.86
2019-03-26T19:24:10.013Z,60.98
2019-03-26T19:26:43.079Z,60.66
2019-03-26T19:29:14.628Z,61.18
2019-03-26T19:31:46.956Z,62.11
2019-03-26T19:34:18.013Z,62.39
2019-03-26T19:36:50.244Z,63.99
2019-03-26T19:39:21.904Z,64.02
2019-03-26T19:41:53.923Z,63.86
2019-03-26T19:44:25.468Z,63.31
2019-03-26T19:46:56.891Z,62.81
2019-03-26T19:49:28.340Z,62.61
2019-03-26T19:52:00.256Z,63.22
2019-03-26T19:54:31.403Z,62.37
2019-03-26T19:57:03.582Z,63.05
2019-03-26T19:59:34.681Z,63.73
2019-03-26T20:02:07.613Z,63.66
2019-03-26T20:04:38.869Z,63.50
2019-03-26T20:07:10.222Z,64.88
2019-03-26T20:09:41.866Z,66.24
2019-03-26T20:12:14.758Z,65.94
2019-03-26T20:14:49.149Z,67.97
2019-03-26T20:17:22.381Z,67.53
2019-03-26T20:19:54.202Z,67.76
2019-03-26T20:22:27.888Z,67.87
2019-03-26T20:25:01.639Z,68.31
2019-03-26T20:27:36.154Z,68.28
2019-03-26T20:30:11.559Z,68.11
2019-03-26T20:32:43.231Z,68.24
2019-03-26T20:35:15.636Z,68.43
2019-03-26T20:37:48.148Z,68.58
2019-03-26T20:40:19.720Z,68.62
2019-03-26T20:42:51.291Z,68.82
2019-03-26T20:45:22.825Z,70.47
2019-03-26T20:47:54.627Z,70.04
2019-03-26T20:50:27.081Z,69.97
2019-03-26T20:52:58.598Z,69.84
2019-03-26T20:55:34.662Z,69.46
2019-03-26T20:58:06.860Z,69.09
2019-03-26T21:00:47.283Z,68.87
2019-03-26T21:03:18.688Z,68.15
2019-03-26T21:05:50.096Z,68.17
2019-03-26T21:08:22.865Z,68.06
2019-03-26T21:10:55.924Z,67.97
2019-03-26T21:13:27.211Z,68.24
2019-03-26T21:15:58.383Z,68.65
2019-03-26T21:18:31.488Z,69.36
2019-03-26T21:21:04.549Z,69.34
2019-03-26T21:23:37.421Z,69.76
2019-03-26T21:26:08.808Z,69.76
2019-03-26T21:28:40.138Z,69.31
2019-03-26T21:31:11.018Z,69.11
2019-03-26T21:33:42.332Z,68.54
2019-03-26T21:36:13.485Z,68.74
2019-03-26T21:38:46.538Z,68.63
2019-03-26T21:41:17.856Z,68.78
2019-03-26T21:44:03.326Z,69.00
2019-03-26T21:46:23.989Z,69.71
2019-03-26T21:48:54.991Z,68.32
2019-03-26T21:51:26.468Z,66.61
2019-03-26T21:53:57.713Z,66.65
2019-03-26T21:56:29.018Z,69.75
2019-03-26T21:59:00.292Z,70.43
2019-03-26T22:01:31.490Z,70.23
2019-03-26T22:04:02.649Z,71.26
2019-03-26T22:06:34.115Z,69.85
2019-03-26T22:09:07.600Z,68.31
2019-03-26T22:11:49.653Z,69.79
2019-03-26T22:14:18.220Z,71.41
2019-03-26T22:16:46.800Z,71.16
2019-03-26T22:19:27.801Z,71.42
2019-03-26T22:21:51.040Z,71.30
2019-03-26T22:24:22.283Z,71.06
2019-03-26T22:26:53.627Z,70.98
2019-03-26T22:29:24.873Z,71.14
2019-03-26T22:31:55.947Z,71.18
2019-03-26T22:34:28.817Z,71.20
2019-03-26T22:37:00.190Z,71.47
2019-03-26T22:39:31.586Z,71.45
2019-03-26T22:42:05.638Z,71.42
2019-03-26T22:44:38.969Z,72.41
2019-03-26T22:47:10.457Z,72.79
2019-03-26T22:49:41.681Z,72.68
2019-03-26T22:52:13.072Z,71.87
2019-03-26T22:54:44.416Z,72.38
2019-03-26T22:57:15.669Z,71.94
2019-03-26T22:59:46.764Z,72.26
2019-03-26T23:02:17.919Z,71.77
2019-03-26T23:04:50.735Z,70.71
2019-03-26T23:07:22.050Z,70.98
2019-03-26T23:09:54.229Z,71.39
2019-03-26T23:12:27.186Z,72.08
2019-03-26T23:14:58.388Z,71.59
2019-03-26T23:17:29.740Z,72.09
2019-03-26T23:20:01.188Z,72.26
2019-03-26T23:22:32.947Z,72.21
2019-03-26T23:25:06.056Z,72.27
2019-03-26T23:27:37.307Z,72.35
2019-03-26T23:30:09.199Z,72.75
2019-03-26T23:32:40.263Z,72.51
2019-03-26T23:35:11.737Z,72.48
2019-03-26T23:37:45.026Z,72.84
2019-03-26T23:40:17.998Z,73.20
2019-03-26T23:42:51.039Z,72.70
2019-03-26T23:45:22.265Z,72.46
2019-03-26T23:47:53.764Z,72.53
2019-03-26T23:50:24.918Z,72.01
2019-03-26T23:52:55.947Z,72.26
2019-03-26T23:55:28.752Z,72.24
2019-03-26T23:58:00.318Z,72.23
